createdAt,value
2023-04-18T00:00:28.531Z,95124.00
2023-04-18T00:01:28.566Z,95122.00
2023-04-18T00:02:28.774Z,95122.00
2023-04-18T00:03:28.876Z,95124.00
2023-04-18T00:04:28.837Z,95124.00
2023-04-18T00:05:28.889Z,95124.00
2023-04-18T00:06:28.836Z,95124.00
2023-04-18T00:07:28.878Z,95122.00
2023-04-18T00:08:28.927Z,95122.00
2023-04-18T00:09:29.010Z,95120.00
2023-04-18T00:10:29.015Z,95120.00
2023-04-18T00:11:29.060Z,95118.00
2023-04-18T00:12:29.944Z,95118.00
2023-04-18T00:13:29.157Z,95116.00
2023-04-18T00:14:29.209Z,95116.00
2023-04-18T00:15:29.309Z,95114.00
2023-04-18T00:16:29.402Z,95114.00
2023-04-18T00:17:29.363Z,95116.00
2023-04-18T00:18:29.412Z,95114.00
2023-04-18T00:19:29.490Z,95112.00
2023-04-18T00:20:29.534Z,95112.00
2023-04-18T00:21:29.581Z,95114.00
2023-04-18T00:22:29.646Z,95112.00
2023-04-18T00:23:29.724Z,95114.00
2023-04-18T00:24:29.806Z,95112.00
2023-04-18T00:25:29.860Z,95110.00
2023-04-18T00:26:29.914Z,95112.00
2023-04-18T00:27:29.945Z,95112.00
2023-04-18T00:28:30.041Z,95116.00
2023-04-18T00:29:30.035Z,95112.00
2023-04-18T00:30:30.093Z,95118.00
2023-04-18T00:31:30.208Z,95116.00
2023-04-18T00:32:30.283Z,95118.00
2023-04-18T00:33:30.313Z,95116.00
2023-04-18T00:34:30.349Z,95116.00
2023-04-18T00:35:30.418Z,95116.00
2023-04-18T00:36:30.529Z,95114.00
2023-04-18T00:37:30.529Z,95116.00
2023-04-18T00:38:30.612Z,95112.00
2023-04-18T00:39:30.678Z,95118.00
2023-04-18T00:40:30.704Z,95114.00
2023-04-18T00:41:30.789Z,95114.00
2023-04-18T00:42:30.800Z,95112.00
2023-04-18T00:43:30.918Z,95114.00
2023-04-18T00:44:30.944Z,95114.00
2023-04-18T00:45:30.999Z,95114.00
2023-04-18T00:46:31.124Z,95112.00
2023-04-18T00:47:31.176Z,95110.00
2023-04-18T00:48:31.156Z,95110.00
2023-04-18T00:49:31.227Z,95110.00
2023-04-18T00:50:31.258Z,95108.00
2023-04-18T00:51:31.330Z,95108.00
2023-04-18T00:52:31.382Z,95110.00
2023-04-18T00:53:31.462Z,95108.00
2023-04-18T00:54:31.611Z,95106.00
2023-04-18T00:55:31.586Z,95108.00
2023-04-18T00:56:31.617Z,95108.00
2023-04-18T00:57:31.693Z,95106.00
2023-04-18T00:58:31.740Z,95108.00
2023-04-18T00:59:31.816Z,95104.00
2023-04-18T01:00:31.877Z,95102.00
2023-04-18T01:01:31.978Z,95106.00
2023-04-18T01:02:32.112Z,95102.00
2023-04-18T01:03:32.217Z,95106.00
2023-04-18T01:04:32.251Z,95102.00
2023-04-18T01:05:32.165Z,95102.00
2023-04-18T01:06:32.236Z,95102.00
2023-04-18T01:07:32.264Z,95104.00
2023-04-18T01:08:32.306Z,95104.00
2023-04-18T01:09:32.423Z,95104.00
2023-04-18T01:10:32.473Z,95106.00
2023-04-18T01:11:32.520Z,95108.00
2023-04-18T01:12:32.563Z,95104.00
2023-04-18T01:13:32.643Z,95104.00
2023-04-18T01:14:32.711Z,95104.00
2023-04-18T01:15:32.744Z,95102.00
2023-04-18T01:16:32.893Z,95106.00
2023-04-18T01:17:32.902Z,95102.00
2023-04-18T01:18:32.904Z,95102.00
2023-04-18T01:19:32.979Z,95102.00
2023-04-18T01:20:33.052Z,95100.00
2023-04-18T01:21:33.083Z,95098.00
2023-04-18T01:22:33.162Z,95098.00
2023-04-18T01:23:33.210Z,95096.00
2023-04-18T01:24:33.288Z,95096.00
2023-04-18T01:25:33.325Z,95094.00
2023-04-18T01:26:33.399Z,95096.00
2023-04-18T01:27:33.453Z,95092.00
2023-04-18T01:28:33.514Z,95094.00
2023-04-18T01:29:33.568Z,95092.00
2023-04-18T01:30:33.630Z,95088.00
2023-04-18T01:31:33.710Z,95086.00
2023-04-18T01:32:33.745Z,95088.00
2023-04-18T01:33:33.806Z,95092.00
2023-04-18T01:34:33.859Z,95088.00
2023-04-18T01:35:33.908Z,95088.00
2023-04-18T01:36:33.990Z,95088.00
2023-04-18T01:37:34.065Z,95088.00
2023-04-18T01:38:34.123Z,95086.00
2023-04-18T01:39:34.176Z,95088.00
2023-04-18T01:40:34.232Z,95086.00
2023-04-18T01:41:34.267Z,95086.00
2023-04-18T01:42:34.324Z,95088.00
2023-04-18T01:43:34.386Z,95086.00
2023-04-18T01:44:34.433Z,95084.00
2023-04-18T01:45:34.487Z,95084.00
2023-04-18T01:46:34.580Z,95086.00
2023-04-18T01:47:34.657Z,95086.00
2023-04-18T01:48:34.678Z,95086.00
2023-04-18T01:49:34.739Z,95084.00
2023-04-18T01:50:34.763Z,95086.00
2023-04-18T01:51:34.967Z,95086.00
2023-04-18T01:52:34.913Z,95086.00
2023-04-18T01:53:34.967Z,95088.00
2023-04-18T01:54:35.051Z,95086.00
2023-04-18T01:55:35.087Z,95088.00
2023-04-18T01:56:35.146Z,95090.00
2023-04-18T01:57:35.215Z,95088.00
2023-04-18T01:58:35.261Z,95088.00
2023-04-18T01:59:35.312Z,95092.00
2023-04-18T02:00:35.415Z,95090.00
2023-04-18T02:01:35.423Z,95088.00
2023-04-18T02:02:35.560Z,95090.00
2023-04-18T02:03:35.749Z,95086.00
2023-04-18T02:04:35.629Z,95088.00
2023-04-18T02:05:35.664Z,95086.00
2023-04-18T02:06:37.490Z,95086.00
2023-04-18T02:07:35.795Z,95086.00
2023-04-18T02:08:36.081Z,95086.00
2023-04-18T02:09:35.935Z,95088.00
2023-04-18T02:10:35.963Z,95088.00
2023-04-18T02:11:36.031Z,95088.00
2023-04-18T02:12:36.123Z,95088.00
2023-04-18T02:13:36.141Z,95088.00
2023-04-18T02:14:36.212Z,95088.00
2023-04-18T02:15:36.271Z,95088.00
2023-04-18T02:16:36.300Z,95086.00
2023-04-18T02:17:36.439Z,95084.00
2023-04-18T02:18:36.409Z,95084.00
2023-04-18T02:19:36.478Z,95088.00
2023-04-18T02:20:36.578Z,95088.00
2023-04-18T02:21:36.573Z,95084.00
2023-04-18T02:22:36.595Z,95086.00
2023-04-18T02:23:36.691Z,95088.00
2023-04-18T02:24:36.757Z,95084.00
2023-04-18T02:25:36.802Z,95086.00
2023-04-18T02:26:36.830Z,95086.00
2023-04-18T02:27:36.901Z,95088.00
2023-04-18T02:28:36.971Z,95088.00
2023-04-18T02:29:37.019Z,95090.00
2023-04-18T02:30:37.093Z,95090.00
2023-04-18T02:31:37.167Z,95090.00
2023-04-18T02:32:37.207Z,95090.00
2023-04-18T02:33:37.221Z,95092.00
2023-04-18T02:34:37.315Z,95092.00
2023-04-18T02:35:37.374Z,95094.00
2023-04-18T02:36:37.425Z,95092.00
2023-04-18T02:37:37.469Z,95094.00
2023-04-18T02:38:37.530Z,95092.00
2023-04-18T02:39:37.599Z,95094.00
2023-04-18T02:40:37.645Z,95092.00
2023-04-18T02:41:37.721Z,95092.00
2023-04-18T02:42:37.751Z,95092.00
2023-04-18T02:43:37.792Z,95090.00
2023-04-18T02:44:37.818Z,95090.00
2023-04-18T02:45:37.933Z,95094.00
2023-04-18T02:46:37.958Z,95094.00
2023-04-18T02:47:51.315Z,95092.00
2023-04-18T02:48:38.998Z,95094.00
2023-04-18T02:49:37.976Z,95094.00
2023-04-18T02:50:37.994Z,95094.00
2023-04-18T02:51:37.988Z,95090.00
2023-04-18T02:52:37.965Z,95090.00
2023-04-18T02:53:37.940Z,95088.00
2023-04-18T02:54:37.987Z,95090.00
2023-04-18T02:55:37.958Z,95090.00
2023-04-18T02:56:37.993Z,95088.00
2023-04-18T02:57:38.067Z,95086.00
2023-04-18T02:58:38.151Z,95084.00
2023-04-18T02:59:38.224Z,95082.00
2023-04-18T03:00:38.276Z,95084.00
2023-04-18T03:01:38.369Z,95084.00
2023-04-18T03:02:38.450Z,95084.00
2023-04-18T03:03:38.454Z,95086.00
2023-04-18T03:04:38.604Z,95086.00
2023-04-18T03:05:38.583Z,95082.00
2023-04-18T03:06:38.626Z,95084.00
2023-04-18T03:07:38.671Z,95082.00
2023-04-18T03:08:38.751Z,95084.00
2023-04-18T03:09:38.830Z,95082.00
2023-04-18T03:10:38.888Z,95082.00
2023-04-18T03:11:38.948Z,95082.00
2023-04-18T03:12:38.980Z,95082.00
2023-04-18T03:13:39.079Z,95080.00
2023-04-18T03:14:39.135Z,95080.00
2023-04-18T03:15:39.226Z,95082.00
2023-04-18T03:16:39.245Z,95080.00
2023-04-18T03:17:39.393Z,95079.00
2023-04-18T03:18:39.356Z,95080.00
2023-04-18T03:19:39.442Z,95080.00
2023-04-18T03:20:39.480Z,95082.00
2023-04-18T03:21:39.584Z,95082.00
2023-04-18T03:22:39.699Z,95080.00
2023-04-18T03:23:39.670Z,95080.00
2023-04-18T03:24:39.754Z,95080.00
2023-04-18T03:25:39.830Z,95079.00
2023-04-18T03:26:39.872Z,95075.00
2023-04-18T03:27:39.932Z,95075.00
2023-04-18T03:28:40.019Z,95075.00
2023-04-18T03:29:40.097Z,95077.00
2023-04-18T03:30:40.102Z,95077.00
2023-04-18T03:31:40.190Z,95077.00
2023-04-18T03:32:40.267Z,95075.00
2023-04-18T03:33:40.322Z,95077.00
2023-04-18T03:34:40.415Z,95077.00
2023-04-18T03:35:40.444Z,95077.00
2023-04-18T03:36:40.491Z,95079.00
2023-04-18T03:37:40.569Z,95080.00
2023-04-18T03:38:40.641Z,95079.00
2023-04-18T03:39:40.704Z,95079.00
2023-04-18T03:40:40.754Z,95080.00
2023-04-18T03:41:40.811Z,95080.00
2023-04-18T03:42:40.882Z,95079.00
2023-04-18T03:43:40.970Z,95077.00
2023-04-18T03:44:41.013Z,95077.00
2023-04-18T03:45:41.051Z,95079.00
2023-04-18T03:46:41.236Z,95077.00
2023-04-18T03:47:41.231Z,95077.00
2023-04-18T03:48:41.260Z,95077.00
2023-04-18T03:49:41.315Z,95075.00
2023-04-18T03:50:41.382Z,95071.00
2023-04-18T03:51:41.468Z,95071.00
2023-04-18T03:52:41.511Z,95077.00
2023-04-18T03:53:41.571Z,95071.00
2023-04-18T03:54:41.612Z,95079.00
2023-04-18T03:55:41.761Z,95075.00
2023-04-18T03:56:41.783Z,95073.00
2023-04-18T03:57:41.816Z,95073.00
2023-04-18T03:58:41.838Z,95073.00
2023-04-18T03:59:41.938Z,95075.00
2023-04-18T04:00:41.989Z,95075.00
2023-04-18T04:01:42.110Z,95080.00
2023-04-18T04:02:42.196Z,95077.00
2023-04-18T04:03:42.385Z,95077.00
2023-04-18T04:04:42.286Z,95080.00
2023-04-18T04:05:42.312Z,95075.00
2023-04-18T04:06:42.364Z,95075.00
2023-04-18T04:07:42.435Z,95080.00
2023-04-18T04:08:42.485Z,95077.00
2023-04-18T04:09:42.558Z,95077.00
2023-04-18T04:10:42.615Z,95079.00
2023-04-18T04:11:42.671Z,95077.00
2023-04-18T04:12:42.753Z,95079.00
2023-04-18T04:13:42.822Z,95079.00
2023-04-18T04:14:42.872Z,95079.00
2023-04-18T04:15:42.903Z,95079.00
2023-04-18T04:16:43.026Z,95079.00
2023-04-18T04:17:43.106Z,95080.00
2023-04-18T04:18:43.114Z,95079.00
2023-04-18T04:19:43.163Z,95080.00
2023-04-18T04:20:43.250Z,95082.00
2023-04-18T04:21:43.283Z,95082.00
2023-04-18T04:22:43.353Z,95084.00
2023-04-18T04:23:43.383Z,95086.00
2023-04-18T04:24:43.464Z,95086.00
2023-04-18T04:25:43.569Z,95088.00
2023-04-18T04:26:43.631Z,95090.00
2023-04-18T04:27:43.652Z,95092.00
2023-04-18T04:28:43.711Z,95092.00
2023-04-18T04:29:43.774Z,95092.00
2023-04-18T04:30:43.841Z,95090.00
2023-04-18T04:31:43.934Z,95092.00
2023-04-18T04:32:43.984Z,95090.00
2023-04-18T04:33:43.997Z,95094.00
2023-04-18T04:34:44.087Z,95092.00
2023-04-18T04:35:44.162Z,95094.00
2023-04-18T04:36:44.195Z,95092.00
2023-04-18T04:37:44.312Z,95096.00
2023-04-18T04:38:44.368Z,95094.00
2023-04-18T04:39:44.388Z,95096.00
2023-04-18T04:40:44.451Z,95096.00
2023-04-18T04:41:44.518Z,95096.00
2023-04-18T04:42:44.565Z,95098.00
2023-04-18T04:43:44.652Z,95098.00
2023-04-18T04:44:44.735Z,95100.00
2023-04-18T04:45:44.822Z,95100.00
2023-04-18T04:46:44.846Z,95098.00
2023-04-18T04:47:44.985Z,95096.00
2023-04-18T04:48:44.966Z,95100.00
2023-04-18T04:49:45.056Z,95098.00
2023-04-18T04:50:45.106Z,95100.00
2023-04-18T04:51:45.154Z,95100.00
2023-04-18T04:52:45.213Z,95100.00
2023-04-18T04:53:45.247Z,95102.00
2023-04-18T04:54:45.358Z,95104.00
2023-04-18T04:55:45.409Z,95102.00
2023-04-18T04:56:45.470Z,95104.00
2023-04-18T04:57:45.582Z,95104.00
2023-04-18T04:58:45.593Z,95104.00
2023-04-18T04:59:45.674Z,95106.00
2023-04-18T05:00:45.772Z,95102.00
2023-04-18T05:01:45.875Z,95102.00
2023-04-18T05:02:46.039Z,95104.00
2023-04-18T05:03:46.017Z,95106.00
2023-04-18T05:04:45.954Z,95104.00
2023-04-18T05:05:46.020Z,95106.00
2023-04-18T05:06:46.046Z,95106.00
2023-04-18T05:07:46.124Z,95106.00
2023-04-18T05:08:46.167Z,95106.00
2023-04-18T05:09:46.215Z,95106.00
2023-04-18T05:10:46.273Z,95106.00
2023-04-18T05:11:46.295Z,95108.00
2023-04-18T05:12:46.413Z,95106.00
2023-04-18T05:13:46.541Z,95110.00
2023-04-18T05:14:46.531Z,95108.00
2023-04-18T05:15:46.565Z,95112.00
2023-04-18T05:16:46.673Z,95112.00
2023-04-18T05:17:46.748Z,95116.00
2023-04-18T05:18:46.746Z,95112.00
2023-04-18T05:19:46.826Z,95116.00
2023-04-18T05:20:46.892Z,95114.00
2023-04-18T05:21:46.968Z,95112.00
2023-04-18T05:22:47.034Z,95110.00
2023-04-18T05:23:47.033Z,95114.00
2023-04-18T05:24:47.105Z,95114.00
2023-04-18T05:25:47.164Z,95110.00
2023-04-18T05:26:47.228Z,95114.00
2023-04-18T05:27:47.327Z,95114.00
2023-04-18T05:28:47.325Z,95114.00
2023-04-18T05:29:47.563Z,95112.00
2023-04-18T05:30:47.514Z,95116.00
2023-04-18T05:31:47.515Z,95114.00
2023-04-18T05:32:47.613Z,95112.00
2023-04-18T05:33:47.668Z,95114.00
2023-04-18T05:34:47.706Z,95112.00
2023-04-18T05:35:47.762Z,95112.00
2023-04-18T05:36:47.846Z,95112.00
2023-04-18T05:37:47.908Z,95114.00
2023-04-18T05:38:47.971Z,95118.00
2023-04-18T05:39:48.068Z,95118.00
2023-04-18T05:40:48.099Z,95118.00
2023-04-18T05:41:48.169Z,95118.00
2023-04-18T05:42:48.254Z,95118.00
2023-04-18T05:44:01.901Z,95122.00
2023-04-18T05:44:49.281Z,95120.00
2023-04-18T05:45:48.272Z,95122.00
2023-04-18T05:46:48.351Z,95124.00
2023-04-18T05:47:48.367Z,95124.00
2023-04-18T05:48:48.231Z,95122.00
2023-04-18T05:49:48.249Z,95122.00
2023-04-18T05:50:48.253Z,95127.00
2023-04-18T05:51:48.239Z,95133.00
2023-04-18T05:52:48.210Z,95126.00
2023-04-18T05:53:48.226Z,95133.00
2023-04-18T05:54:48.345Z,95129.00
2023-04-18T05:55:48.340Z,95126.00
2023-04-18T05:56:48.366Z,95126.00
2023-04-18T05:57:48.383Z,95127.00
2023-04-18T05:58:48.430Z,95129.00
2023-04-18T05:59:48.473Z,95129.00
2023-04-18T06:00:48.519Z,95127.00
2023-04-18T06:01:48.543Z,95129.00
2023-04-18T06:02:48.641Z,95133.00
2023-04-18T06:03:48.849Z,95135.00
2023-04-18T06:04:48.776Z,95131.00
2023-04-18T06:05:48.718Z,95135.00
2023-04-18T06:06:48.664Z,95137.00
2023-04-18T06:07:48.730Z,95137.00
2023-04-18T06:08:48.730Z,95139.00
2023-04-18T06:09:48.738Z,95137.00
2023-04-18T06:10:48.713Z,95141.00
2023-04-18T06:11:48.749Z,95141.00
2023-04-18T06:12:48.737Z,95137.00
2023-04-18T06:13:48.733Z,95149.00
2023-04-18T06:14:48.782Z,95149.00
2023-04-18T06:15:48.790Z,95149.00
2023-04-18T06:16:48.805Z,95141.00
2023-04-18T06:17:48.824Z,95141.00
2023-04-18T06:18:48.845Z,95149.00
2023-04-18T06:19:48.855Z,95153.00
2023-04-18T06:20:48.862Z,95149.00
2023-04-18T06:21:48.865Z,95149.00
2023-04-18T06:22:48.951Z,95151.00
2023-04-18T06:23:48.912Z,95151.00
2023-04-18T06:24:48.942Z,95149.00
2023-04-18T06:25:48.955Z,95153.00
2023-04-18T06:26:48.986Z,95151.00
2023-04-18T06:27:49.012Z,95151.00
2023-04-18T06:28:48.993Z,95151.00
2023-04-18T06:29:49.033Z,95151.00
2023-04-18T06:30:49.102Z,95153.00
2023-04-18T06:31:49.052Z,95151.00
2023-04-18T06:32:49.117Z,95153.00
2023-04-18T06:33:49.079Z,95155.00
2023-04-18T06:34:49.103Z,95157.00
2023-04-18T06:35:49.082Z,95155.00
2023-04-18T06:36:49.061Z,95157.00
2023-04-18T06:37:49.055Z,95155.00
2023-04-18T06:38:49.067Z,95155.00
2023-04-18T06:39:49.100Z,95153.00
2023-04-18T06:40:49.092Z,95157.00
2023-04-18T06:41:49.123Z,95155.00
2023-04-18T06:42:49.188Z,95157.00
2023-04-18T06:44:02.140Z,95155.00
2023-04-18T06:44:50.223Z,95155.00
2023-04-18T06:45:49.643Z,95157.00
2023-04-18T06:46:49.232Z,95153.00
2023-04-18T06:47:49.258Z,95159.00
2023-04-18T06:48:51.445Z,95157.00
2023-04-18T06:49:49.242Z,95157.00
2023-04-18T06:50:49.214Z,95155.00
2023-04-18T06:51:49.232Z,95157.00
2023-04-18T06:52:49.242Z,95157.00
2023-04-18T06:53:49.335Z,95157.00
2023-04-18T06:54:49.459Z,95155.00
2023-04-18T06:55:49.424Z,95157.00
2023-04-18T06:56:49.477Z,95157.00
2023-04-18T06:57:49.553Z,95159.00
2023-04-18T06:58:49.583Z,95157.00
2023-04-18T06:59:49.671Z,95155.00
2023-04-18T07:00:49.717Z,95155.00
2023-04-18T07:01:49.763Z,95155.00
2023-04-18T07:02:49.892Z,95155.00
2023-04-18T07:03:49.916Z,95157.00
2023-04-18T07:04:49.882Z,95151.00
2023-04-18T07:05:50.093Z,95153.00
2023-04-18T07:06:49.994Z,95155.00
2023-04-18T07:07:50.072Z,95151.00
2023-04-18T07:08:50.089Z,95149.00
2023-04-18T07:09:50.127Z,95151.00
2023-04-18T07:10:50.422Z,95153.00
2023-04-18T07:11:50.177Z,95153.00
2023-04-18T07:12:50.227Z,95155.00
2023-04-18T07:13:50.267Z,95153.00
2023-04-18T07:14:50.313Z,95153.00
2023-04-18T07:15:50.357Z,95155.00
2023-04-18T07:16:50.460Z,95153.00
2023-04-18T07:17:50.435Z,95151.00
2023-04-18T07:18:50.431Z,95149.00
2023-04-18T07:19:50.483Z,95151.00
2023-04-18T07:20:50.517Z,95153.00
2023-04-18T07:21:50.538Z,95149.00
2023-04-18T07:22:50.583Z,95151.00
2023-04-18T07:23:50.598Z,95149.00
2023-04-18T07:24:50.644Z,95149.00
2023-04-18T07:25:50.727Z,95141.00
2023-04-18T07:26:52.027Z,95153.00
2023-04-18T07:27:50.729Z,95151.00
2023-04-18T07:28:50.747Z,95151.00
2023-04-18T07:29:50.784Z,95153.00
2023-04-18T07:30:50.835Z,95153.00
2023-04-18T07:31:50.819Z,95155.00
2023-04-18T07:32:50.912Z,95155.00
2023-04-18T07:33:50.888Z,95155.00
2023-04-18T07:34:50.900Z,95153.00
2023-04-18T07:35:50.916Z,95157.00
2023-04-18T07:36:50.939Z,95157.00
2023-04-18T07:37:50.957Z,95159.00
2023-04-18T07:38:50.948Z,95161.00
2023-04-18T07:39:51.040Z,95157.00
2023-04-18T07:40:51.107Z,95163.00
2023-04-18T07:41:51.035Z,95163.00
2023-04-18T07:42:51.033Z,95157.00
2023-04-18T07:43:51.056Z,95159.00
2023-04-18T07:44:51.068Z,95161.00
2023-04-18T07:45:51.192Z,95161.00
2023-04-18T07:46:51.086Z,95161.00
2023-04-18T07:47:51.137Z,95159.00
2023-04-18T07:48:51.095Z,95161.00
2023-04-18T07:49:51.089Z,95157.00
2023-04-18T07:50:51.117Z,95159.00
2023-04-18T07:51:51.122Z,95155.00
2023-04-18T07:52:51.149Z,95157.00
2023-04-18T07:53:51.240Z,95155.00
2023-04-18T07:54:51.292Z,95153.00
2023-04-18T07:55:51.345Z,95153.00
2023-04-18T07:56:51.410Z,95151.00
2023-04-18T07:57:51.482Z,95151.00
2023-04-18T07:58:51.624Z,95153.00
2023-04-18T07:59:51.562Z,95153.00
2023-04-18T08:00:51.602Z,95155.00
2023-04-18T08:01:51.666Z,95153.00
2023-04-18T08:02:51.742Z,95157.00
2023-04-18T08:03:51.799Z,95153.00
2023-04-18T08:04:51.809Z,95153.00
2023-04-18T08:05:51.686Z,95155.00
2023-04-18T08:06:51.729Z,95153.00
2023-04-18T08:07:51.687Z,95151.00
2023-04-18T08:08:51.753Z,95153.00
2023-04-18T08:09:51.733Z,95155.00
2023-04-18T08:10:51.788Z,95151.00
2023-04-18T08:11:51.813Z,95149.00
2023-04-18T08:12:51.897Z,95149.00
2023-04-18T08:13:51.938Z,95151.00
2023-04-18T08:14:52.124Z,95149.00
2023-04-18T08:15:52.103Z,95141.00
2023-04-18T08:16:52.148Z,95141.00
2023-04-18T08:17:52.237Z,95137.00
2023-04-18T08:18:52.244Z,95139.00
2023-04-18T08:19:52.304Z,95139.00
2023-04-18T08:20:52.353Z,95137.00
2023-04-18T08:21:52.365Z,95133.00
2023-04-18T08:23:06.103Z,95135.00
2023-04-18T08:23:53.430Z,95135.00
2023-04-18T08:25:04.370Z,95133.00
2023-04-18T08:25:53.449Z,95137.00
2023-04-18T08:26:52.389Z,95133.00
2023-04-18T08:27:52.385Z,95137.00
2023-04-18T08:28:52.388Z,95131.00
2023-04-18T08:29:52.383Z,95131.00
2023-04-18T08:30:52.593Z,95131.00
2023-04-18T08:31:52.421Z,95129.00
2023-04-18T08:32:52.419Z,95131.00
2023-04-18T08:33:52.349Z,95127.00
2023-04-18T08:34:52.348Z,95129.00
2023-04-18T08:35:52.599Z,95133.00
2023-04-18T08:36:52.314Z,95131.00
2023-04-18T08:37:52.328Z,95127.00
2023-04-18T08:38:52.340Z,95129.00
2023-04-18T08:39:52.305Z,95127.00
2023-04-18T08:40:52.297Z,95127.00
2023-04-18T08:41:52.305Z,95126.00
2023-04-18T08:42:52.454Z,95126.00
2023-04-18T08:43:52.375Z,95127.00
2023-04-18T08:44:52.365Z,95126.00
2023-04-18T08:45:52.446Z,95127.00
2023-04-18T08:46:52.559Z,95131.00
2023-04-18T08:47:52.557Z,95129.00
2023-04-18T08:48:52.543Z,95131.00
2023-04-18T08:49:52.538Z,95137.00
2023-04-18T08:50:52.621Z,95135.00
2023-04-18T08:51:52.629Z,95135.00
2023-04-18T08:52:52.646Z,95139.00
2023-04-18T08:53:52.694Z,95133.00
2023-04-18T08:54:52.715Z,95137.00
2023-04-18T08:55:52.806Z,95135.00
2023-04-18T08:56:52.832Z,95135.00
2023-04-18T08:57:52.870Z,95137.00
2023-04-18T08:58:53.020Z,95131.00
2023-04-18T08:59:53.022Z,95131.00
2023-04-18T09:00:53.005Z,95133.00
2023-04-18T09:01:52.988Z,95131.00
2023-04-18T09:02:53.229Z,95133.00
2023-04-18T09:03:52.982Z,95135.00
2023-04-18T09:04:52.930Z,95135.00
2023-04-18T09:05:53.164Z,95133.00
2023-04-18T09:06:52.939Z,95131.00
2023-04-18T09:07:52.967Z,95133.00
2023-04-18T09:08:52.914Z,95135.00
2023-04-18T09:09:52.945Z,95129.00
2023-04-18T09:10:52.953Z,95131.00
2023-04-18T09:11:53.045Z,95129.00
2023-04-18T09:12:53.070Z,95131.00
2023-04-18T09:13:53.067Z,95126.00
2023-04-18T09:14:53.155Z,95131.00
2023-04-18T09:15:53.210Z,95126.00
2023-04-18T09:16:53.347Z,95129.00
2023-04-18T09:17:53.400Z,95126.00
2023-04-18T09:18:53.366Z,95131.00
2023-04-18T09:19:53.465Z,95126.00
2023-04-18T09:20:53.519Z,95126.00
2023-04-18T09:21:53.578Z,95126.00
2023-04-18T09:22:53.621Z,95122.00
2023-04-18T09:23:53.799Z,95124.00
2023-04-18T09:24:53.821Z,95122.00
2023-04-18T09:25:54.164Z,95124.00
2023-04-18T09:26:54.191Z,95122.00
2023-04-18T09:27:53.910Z,95122.00
2023-04-18T09:28:54.105Z,95120.00
2023-04-18T09:29:55.791Z,95118.00
2023-04-18T09:30:54.005Z,95116.00
2023-04-18T09:31:54.140Z,95116.00
2023-04-18T09:32:53.979Z,95114.00
2023-04-18T09:33:54.007Z,95114.00
2023-04-18T09:34:53.972Z,95114.00
2023-04-18T09:35:53.945Z,95110.00
2023-04-18T09:36:54.146Z,95112.00
2023-04-18T09:37:54.158Z,95110.00
2023-04-18T09:38:56.266Z,95110.00
2023-04-18T09:39:53.959Z,95108.00
2023-04-18T09:40:53.922Z,95102.00
2023-04-18T09:41:54.127Z,95110.00
2023-04-18T09:42:53.942Z,95110.00
2023-04-18T09:43:53.903Z,95110.00
2023-04-18T09:44:56.340Z,95106.00
2023-04-18T09:45:53.913Z,95108.00
2023-04-18T09:46:53.893Z,95106.00
2023-04-18T09:47:53.955Z,95104.00
2023-04-18T09:48:53.883Z,95102.00
2023-04-18T09:49:53.916Z,95104.00
2023-04-18T09:50:53.868Z,95100.00
2023-04-18T09:51:54.141Z,95100.00
2023-04-18T09:52:53.849Z,95104.00
2023-04-18T09:53:53.896Z,95106.00
2023-04-18T09:54:53.824Z,95102.00
2023-04-18T09:55:56.168Z,95104.00
2023-04-18T09:56:53.854Z,95102.00
2023-04-18T09:57:53.812Z,95102.00
2023-04-18T09:58:53.808Z,95104.00
2023-04-18T09:59:53.792Z,95104.00
2023-04-18T10:00:53.820Z,95100.00
2023-04-18T10:01:53.829Z,95098.00
2023-04-18T10:02:53.864Z,95100.00
2023-04-18T10:03:53.850Z,95098.00
2023-04-18T10:04:53.849Z,95098.00
2023-04-18T10:05:54.832Z,95096.00
2023-04-18T10:06:53.833Z,95096.00
2023-04-18T10:07:53.810Z,95096.00
2023-04-18T10:08:53.728Z,95092.00
2023-04-18T10:09:53.749Z,95092.00
2023-04-18T10:10:53.724Z,95092.00
2023-04-18T10:11:54.145Z,95092.00
2023-04-18T10:12:53.725Z,95088.00
2023-04-18T10:13:53.693Z,95084.00
2023-04-18T10:14:53.673Z,95084.00
2023-04-18T10:15:53.726Z,95082.00
2023-04-18T10:16:53.686Z,95082.00
2023-04-18T10:18:03.616Z,95080.00
2023-04-18T10:18:54.669Z,95082.00
2023-04-18T10:19:53.687Z,95079.00
2023-04-18T10:20:53.631Z,95079.00
2023-04-18T10:21:53.665Z,95079.00
2023-04-18T10:22:53.771Z,95077.00
2023-04-18T10:23:53.620Z,95075.00
2023-04-18T10:24:53.903Z,95075.00
2023-04-18T10:25:53.611Z,95073.00
2023-04-18T10:26:53.606Z,95073.00
2023-04-18T10:27:53.583Z,95073.00
2023-04-18T10:28:54.011Z,95071.00
2023-04-18T10:29:53.616Z,95073.00
2023-04-18T10:30:53.573Z,95071.00
2023-04-18T10:31:53.627Z,95067.00
2023-04-18T10:32:53.642Z,95067.00
2023-04-18T10:34:04.020Z,95063.00
2023-04-18T10:34:54.625Z,95063.00
2023-04-18T10:35:53.539Z,95061.00
2023-04-18T10:36:53.646Z,95057.00
2023-04-18T10:37:53.533Z,95059.00
2023-04-18T10:38:53.587Z,95057.00
2023-04-18T10:39:53.562Z,95057.00
2023-04-18T10:40:53.507Z,95055.00
2023-04-18T10:41:53.548Z,95055.00
2023-04-18T10:42:53.519Z,95055.00
2023-04-18T10:43:53.474Z,95053.00
2023-04-18T10:44:53.491Z,95059.00
2023-04-18T10:45:53.498Z,95057.00
2023-04-18T10:46:53.533Z,95051.00
2023-04-18T10:47:53.787Z,95051.00
2023-04-18T10:48:53.505Z,95051.00
2023-04-18T10:49:53.508Z,95049.00
2023-04-18T10:50:53.481Z,95047.00
2023-04-18T10:51:53.471Z,95047.00
2023-04-18T10:52:53.465Z,95047.00
2023-04-18T10:53:53.525Z,95045.00
2023-04-18T10:54:53.624Z,95047.00
2023-04-18T10:55:53.608Z,95045.00
2023-04-18T10:56:53.676Z,95043.00
2023-04-18T10:57:53.698Z,95041.00
2023-04-18T10:58:53.782Z,95045.00
2023-04-18T10:59:53.777Z,95041.00
2023-04-18T11:00:53.887Z,95039.00
2023-04-18T11:01:53.869Z,95037.00
2023-04-18T11:02:54.177Z,95037.00
2023-04-18T11:03:54.075Z,95037.00
2023-04-18T11:04:53.951Z,95035.00
2023-04-18T11:05:54.002Z,95035.00
2023-04-18T11:06:54.028Z,95033.00
2023-04-18T11:07:54.046Z,95032.00
2023-04-18T11:08:54.090Z,95033.00
2023-04-18T11:09:54.059Z,95033.00
2023-04-18T11:10:54.092Z,95033.00
2023-04-18T11:11:54.124Z,95032.00
2023-04-18T11:12:54.160Z,95030.00
2023-04-18T11:13:54.194Z,95032.00
2023-04-18T11:14:54.251Z,95030.00
2023-04-18T11:15:54.211Z,95032.00
2023-04-18T11:16:54.349Z,95032.00
2023-04-18T11:17:54.323Z,95028.00
2023-04-18T11:18:54.331Z,95026.00
2023-04-18T11:19:54.348Z,95026.00
2023-04-18T11:20:54.352Z,95022.00
2023-04-18T11:21:54.668Z,95022.00
2023-04-18T11:22:54.380Z,95022.00
2023-04-18T11:23:54.393Z,95022.00
2023-04-18T11:24:54.384Z,95022.00
2023-04-18T11:25:54.430Z,95020.00
2023-04-18T11:26:54.407Z,95020.00
2023-04-18T11:27:54.446Z,95020.00
2023-04-18T11:28:54.465Z,95022.00
2023-04-18T11:29:54.456Z,95020.00
2023-04-18T11:30:54.462Z,95016.00
2023-04-18T11:31:58.326Z,95020.00
2023-04-18T11:32:54.527Z,95020.00
2023-04-18T11:33:54.455Z,95022.00
2023-04-18T11:34:54.466Z,95018.00
2023-04-18T11:35:54.469Z,95020.00
2023-04-18T11:36:54.459Z,95022.00
2023-04-18T11:37:54.451Z,95016.00
2023-04-18T11:38:54.427Z,95012.00
2023-04-18T11:39:54.429Z,95016.00
2023-04-18T11:40:54.438Z,95016.00
2023-04-18T11:41:54.411Z,95018.00
2023-04-18T11:42:54.432Z,95016.00
2023-04-18T11:43:54.457Z,95016.00
2023-04-18T11:44:54.398Z,95016.00